Untitled Document
Stormcell schrijft voor: hln.be / demorgen.be

VLIEGWEER BRUSSEL

[Source: ADDS]
METAR
EBBR 281950Z 04007KT 9999 FEW030CB SCT045 17/14 Q1011 TEMPO 3000 TSRA =
TAF
EBBR 281720Z 2818/2924 03008KT 9999 FEW030 PROB30 TEMPO 2818/2820 2500 SHRA TSRAGR PROB30 TEMPO 2903/2907 2500 BR TEMPO 2910/2921 4000 RA SHRA BKN014CB PROB30 TEMPO 2912/2922 VRB15G25KT 1500 +TSRA TSRAGR =
SR / SS: 03:36 / 19:43 UTC (Brussels 2016-05-28)
Ga naar boven